Latest Weather Observations for Cape Moreton

IDQ60801

Issued at 9:32 am EST Thursday 3 September 2015 (issued every 30 minutes, with the page automatically refreshed every 10 minutes)

About weather observations | Map of weather stations | Latest weather observations for QLD | Other Formats
Station Details ID: 040043 Name: CAPE MORETON LIGHTHOUSE Lat: -27.03 Lon: 153.47 Height: 99.9 m
Data from the previous 72 hours. | See also: Recent months at Cape Moreton
Date/Time
EST
Temp
°C
App
Temp
°C
Dew
Point
Rel
Hum
%
Delta-T
°C
Wind Press
QNH
hPa
Press
MSL
hPa
Rain
since 9 am
mm
Dir
 
Spd
km/h
Gust
km/h
Spd
kts
Gust
kts
03/09:30am 19.7 15.3 19.4 98 0.2 NNW 41 56 22 30 1012.2 1012.0 0.8
03/09:10am 19.4 14.8 18.9 97 0.3 NNW 41 59 22 32 1012.7 1012.4 0.4
03/09:00am 19.6 15.0 18.9 96 0.4 NNW 41 57 22 31 1012.9 1012.6 0.2
03/08:38am 19.8 15.1 18.6 93 0.8 NNW 41 59 22 32 1012.5 1012.3 0.2
03/08:30am 19.9 15.2 18.6 92 0.8 NNW 41 56 22 30 1011.9 1011.7 0.2
03/08:00am 19.5 14.2 18.5 94 0.6 NW 44 63 24 34 1012.4 1012.2 0.2
03/07:34am 19.4 15.3 18.2 93 0.7 NW 37 56 20 30 1012.1 1011.9 0.2
03/07:30am 19.9 15.6 18.7 93 0.8 NW 39 56 21 30 1012.4 1012.2 0.2
03/07:09am 19.8 14.6 18.3 91 0.9 NNW 43 61 23 33 1012.1 1011.9 0.2
03/07:00am 19.8 14.5 18.5 92 0.8 NNW 44 59 24 32 1012.0 1011.8 0.2
03/06:30am 19.9 15.0 18.2 90 1.1 NNW 41 63 22 34 1012.1 1011.9 0.2
03/06:22am 19.9 14.6 18.2 90 1.1 NNW 43 61 23 33 1012.1 1011.9 0.2
03/06:00am 19.9 13.5 17.9 88 1.2 NNW 48 61 26 33 1011.9 1011.7 0.2
03/05:30am 19.8 13.7 17.6 87 1.4 NNW 46 63 25 34 1011.7 1011.5 0.2
03/05:00am 19.5 13.7 17.3 87 1.3 N 44 54 24 29 1011.6 1011.4 0.2
03/04:30am 19.3 12.9 16.9 86 1.5 N 46 56 25 30 1011.6 1011.4 0.2
03/04:00am 19.0 13.7 16.2 84 1.7 N 39 50 21 27 1012.1 1011.9 0.2
03/03:30am 18.7 14.6 15.9 84 1.7 NNW 32 44 17 24 1012.9 1012.6 0.2
03/03:00am 18.4 14.9 15.5 83 1.7 NNW 28 39 15 21 1013.7 1013.4 0.0
03/02:30am 18.8 13.9 14.3 75 2.6 NW 33 46 18 25 1014.7 1014.4 0.0
03/02:00am 19.1 15.6 14.6 75 2.6 NW 26 35 14 19 1014.2 1013.9 0.0
03/01:30am 19.3 14.6 14.3 73 2.9 NNW 32 43 17 23 1014.2 1013.9 0.0
03/01:00am 18.9 15.4 15.6 81 2.0 NNW 28 39 15 21 1014.4 1014.1 0.0
03/12:30am 18.9 15.0 15.6 81 2.0 NW 30 35 16 19 1015.1 1014.8 0.0
03/12:00am 19.9 15.4 14.9 73 2.9 NNW 32 43 17 23 1015.4 1015.1 0.0
 
Date/Time
EST
Temp
°C
App
Temp
°C
Dew
Point
Rel
Hum
%
Delta-T
°C
Wind Press
QNH
hPa
Press
MSL
hPa
Rain
since 9 am
mm
Dir
 
Spd
km/h
Gust
km/h
Spd
kts
Gust
kts
02/11:30pm 19.8 15.5 15.4 76 2.6 NNW 32 43 17 23 1015.8 1015.5 0.0
02/11:00pm 19.8 15.1 15.9 78 2.3 NNW 35 46 19 25 1015.3 1015.0 0.0
02/10:30pm 19.8 15.4 16.6 82 1.9 NNW 35 44 19 24 1015.4 1015.1 0.0
02/10:00pm 20.0 15.0 16.2 79 2.3 N 37 44 20 24 1015.7 1015.4 0.0
02/09:30pm 20.1 15.5 15.1 73 3.0 NNW 33 43 18 23 1015.4 1015.1 0.0
02/09:00pm 20.1 14.9 15.5 75 2.7 N 37 44 20 24 1015.6 1015.3 0.0
02/08:30pm 20.0 16.5 16.4 80 2.2 N 30 39 16 21 1015.8 1015.5 0.0
02/08:00pm 19.9 16.7 16.3 80 2.2 N 28 39 15 21 1015.6 1015.3 0.0
02/07:30pm 19.8 16.9 17.0 84 1.7 N 28 35 15 19 1015.7 1015.4 0.0
02/07:00pm 19.8 15.8 16.6 82 1.9 NNE 33 41 18 22 1015.4 1015.1 0.0
02/06:30pm 19.8 16.6 16.4 81 2.1 N 28 35 15 19 1015.6 1015.3 0.0
02/06:00pm 19.7 15.9 14.7 73 2.9 N 28 35 15 19 1015.6 1015.3 0.0
02/05:30pm 19.8 15.7 13.7 68 3.5 N 28 35 15 19 1015.5 1015.2 0.0
02/05:00pm 19.7 16.4 13.9 69 3.3 NNE 24 32 13 17 1015.1 1014.8 0.0
02/04:30pm 19.7 16.7 12.7 64 4.0 NE 20 24 11 13 1015.4 1015.1 0.0
02/04:00pm 19.9 16.4 12.2 61 4.3 NNE 22 28 12 15 1015.5 1015.2 0.0
02/03:30pm 19.7 16.9 12.7 64 4.0 NE 19 24 10 13 1015.6 1015.3 0.0
02/03:00pm 19.8 17.2 12.1 61 4.3 NE 17 20 9 11 1015.8 1015.5 0.0
02/02:30pm 19.7 17.0 10.4 55 5.0 NE 15 19 8 10 1016.0 1015.7 0.0
02/02:00pm 20.1 17.7 9.9 52 5.5 NE 13 17 7 9 1016.3 1016.0 0.0
02/01:30pm 20.3 17.7 9.2 49 5.9 ENE 13 15 7 8 1016.9 1016.6 0.0
02/01:00pm 20.2 18.0 9.5 50 5.7 ENE 11 15 6 8 1017.3 1017.0 0.0
02/12:30pm 20.3 17.9 8.6 47 6.2 ENE 11 13 6 7 1017.7 1017.4 0.0
02/12:00pm 21.5 19.5 7.3 40 7.3 NE 7 11 4 6 1018.2 1018.0 0.0
02/11:30am 19.6 18.0 8.9 50 5.6 N 7 11 4 6 1019.0 1018.8 0.0
02/11:00am 18.9 16.8 9.7 55 4.9 NNW 11 15 6 8 1019.5 1019.3 0.0
02/10:30am 18.9 16.3 9.4 54 5.0 NNW 13 17 7 9 1019.8 1019.6 0.0
02/10:00am 19.4 17.5 11.7 61 4.3 N 13 17 7 9 1020.0 1019.8 0.0
02/09:30am 19.2 17.7 10.7 58 4.6 NNE 9 13 5 7 1020.0 1019.8 0.0
02/09:00am 18.3 17.3 10.2 59 4.3 ENE 6 7 3 4 1019.8 1019.6 0.0
02/08:30am 18.5 17.7 11.1 62 4.0 SE 6 7 3 4 1019.6 1019.4 0.0
02/08:00am 16.6 15.1 10.5 67 3.2 SW 9 15 5 8 1019.2 1019.0 0.0
02/07:30am 15.5 11.9 9.8 69 3.0 WSW 19 22 10 12 1018.8 1018.6 0.0
02/07:00am 14.9 12.2 9.1 68 3.0 SW 13 17 7 9 1018.6 1018.4 0.0
02/06:30am 15.2 11.9 8.0 62 3.6 SW 15 19 8 10 1018.3 1018.1 0.0
02/06:00am 15.1 11.2 9.5 69 2.9 WSW 20 22 11 12 1018.1 1017.8 0.0
02/05:30am 14.7 10.4 7.0 60 3.8 WSW 19 20 10 11 1017.9 1017.6 0.0
02/05:00am 14.9 10.9 6.7 58 4.0 SW 17 19 9 10 1017.4 1017.1 0.0
02/04:30am 16.0 11.9 6.4 53 4.7 SSW 17 17 9 9 1016.9 1016.6 0.0
02/04:00am 14.9 11.2 7.9 63 3.5 SW 17 20 9 11 1016.7 1016.4 0.0
02/03:30am 15.4 11.9 8.9 65 3.3 SW 17 17 9 9 1016.6 1016.3 0.0
02/03:00am 15.0 10.8 8.3 64 3.4 WSW 20 20 11 11 1016.8 1016.5 0.0
02/02:30am 15.2 11.5 8.0 62 3.6 WSW 17 19 9 10 1017.0 1016.7 0.0
02/02:00am 15.9 12.9 9.3 65 3.4 WSW 15 19 8 10 1017.1 1016.8 0.0
02/01:30am 16.1 14.3 12.1 77 2.2 WSW 13 17 7 9 1017.1 1016.8 0.0
02/01:00am 16.7 14.6 12.5 76 2.3 WNW 15 19 8 10 1016.9 1016.6 0.0
02/12:30am 17.2 14.5 12.9 76 2.4 WNW 19 24 10 13 1016.9 1016.6 0.0
02/12:00am 17.3 14.6 13.0 76 2.4 WNW 19 26 10 14 1016.7 1016.4 0.0
 
Date/Time
EST
Temp
°C
App
Temp
°C
Dew
Point
Rel
Hum
%
Delta-T
°C
Wind Press
QNH
hPa
Press
MSL
hPa
Rain
since 9 am
mm
Dir
 
Spd
km/h
Gust
km/h
Spd
kts
Gust
kts
01/11:30pm 17.6 14.8 12.7 73 2.7 NW 19 24 10 13 1016.7 1016.4 0.0
01/11:00pm 17.8 15.2 13.1 74 2.6 NW 19 24 10 13 1016.6 1016.3 0.0
01/10:30pm 18.0 15.4 13.9 77 2.3 NW 20 30 11 16 1016.6 1016.3 0.0
01/10:00pm 18.4 15.8 13.7 74 2.7 NW 20 30 11 16 1016.6 1016.3 0.0
01/09:30pm 18.4 15.5 13.0 71 3.1 NNW 20 28 11 15 1016.5 1016.2 0.0
01/09:00pm 18.3 15.5 12.5 69 3.2 NNW 19 26 10 14 1016.3 1016.0 0.0
01/08:30pm 18.2 14.6 12.0 67 3.4 NW 22 30 12 16 1016.3 1016.0 0.0
01/08:00pm 18.2 14.6 11.7 66 3.6 NW 22 28 12 15 1016.0 1015.7 0.0
01/07:30pm 18.2 14.5 11.5 65 3.7 NW 22 28 12 15 1015.7 1015.4 0.0
01/07:00pm 18.1 15.0 11.7 66 3.5 NNW 19 22 10 12 1015.4 1015.1 0.0
01/06:30pm 18.2 14.7 10.3 60 4.2 NNW 19 24 10 13 1015.1 1014.8 0.0
01/06:00pm 18.3 14.9 10.4 60 4.2 NNW 19 24 10 13 1014.8 1014.5 0.0
01/05:30pm 18.5 14.3 7.6 49 5.6 NNW 19 22 10 12 1014.4 1014.1 0.0
01/05:00pm 18.6 15.9 10.2 58 4.5 N 15 19 8 10 1014.2 1013.9 0.0
01/04:30pm 19.1 16.5 9.3 53 5.2 N 13 17 7 9 1014.1 1013.8 0.0
01/04:00pm 19.4 16.4 9.3 52 5.4 N 15 19 8 10 1014.1 1013.8 0.0
01/03:30pm 20.0 17.7 10.4 54 5.2 N 13 17 7 9 1013.9 1013.6 0.0
01/03:00pm 19.7 16.8 6.4 42 6.7 N 11 13 6 7 1014.0 1013.7 0.0
01/02:30pm 19.3 16.2 7.4 46 6.1 NNW 13 19 7 10 1014.4 1014.1 0.0
01/02:00pm 20.5 17.4 7.2 42 6.8 W 13 17 7 9 1014.6 1014.3 0.0
01/01:30pm 20.4 15.9 4.4 35 7.8 W 17 24 9 13 1014.7 1014.4 0.0
01/01:00pm 20.2 15.8 4.7 36 7.6 W 17 26 9 14 1015.1 1014.8 0.0
01/12:30pm 20.4 16.1 5.2 37 7.5 WSW 17 26 9 14 1015.4 1015.1 0.0
01/12:00pm 19.7 16.3 3.8 35 7.6 SW 11 19 6 10 1015.8 1015.5 0.0
01/11:30am 19.3 16.3 7.7 47 6.0 SW 13 24 7 13 1016.2 1015.9 0.0
01/11:00am 19.5 16.8 9.1 51 5.5 SW 13 20 7 11 1016.7 1016.4 0.0
01/10:30am 18.4 14.7 8.1 51 5.3 SW 17 26 9 14 1017.1 1016.8 0.0
01/10:00am 17.9 14.3 8.2 53 5.0 SW 17 26 9 14 1017.2 1016.9 0.0
01/09:30am 17.2 12.4 7.5 53 4.9 SW 22 32 12 17 1017.2 1017.0 0.0
01/09:00am 16.2 10.1 6.6 53 4.7 WSW 28 35 15 19 1017.2 1017.0 0.0
01/08:30am 15.7 10.6 7.7 59 4.0 WSW 24 33 13 18 1017.1 1016.9 0.0
01/08:00am 15.1 10.8 7.9 62 3.6 WSW 20 32 11 17 1016.9 1016.7 0.0
01/07:30am 14.5 9.5 8.0 65 3.3 WSW 24 32 13 17 1016.5 1016.3 0.0
01/07:00am 13.4 8.7 7.8 69 2.8 WSW 22 28 12 15 1016.1 1015.9 0.0
01/06:30am 13.0 7.9 7.7 70 2.6 WSW 24 30 13 16 1015.9 1015.7 0.0
01/06:00am 13.0 7.9 7.5 69 2.7 WSW 24 30 13 16 1015.5 1015.3 0.0
01/05:30am 13.0 7.9 7.7 70 2.6 WSW 24 30 13 16 1015.3 1015.1 0.0
01/05:00am 12.9 8.2 7.8 71 2.5 WSW 22 28 12 15 1014.9 1014.7 0.0
01/04:30am 13.4 8.3 7.6 68 2.9 WSW 24 28 13 15 1014.8 1014.6 0.0
01/04:00am 13.5 8.2 6.8 64 3.2 WSW 24 28 13 15 1014.9 1014.7 0.0
01/03:30am 13.7 8.8 6.8 63 3.4 SW 22 30 12 16 1014.9 1014.7 0.0
01/03:00am 13.8 9.3 6.9 63 3.4 SW 20 28 11 15 1015.0 1014.8 0.0
01/02:30am 14.1 9.5 6.5 60 3.7 SW 20 26 11 14 1014.9 1014.7 0.0
01/02:00am 14.0 9.5 6.1 59 3.8 SW 19 26 10 14 1015.2 1015.0 0.0
01/01:30am 14.1 9.5 6.5 60 3.7 SW 20 26 11 14 1015.5 1015.3 0.0
01/01:00am 14.4 9.8 6.5 59 3.8 SW 20 24 11 13 1015.7 1015.5 0.0
01/12:30am 14.6 10.5 6.2 57 4.1 SW 17 22 9 12 1015.9 1015.7 0.0
01/12:00am 15.0 9.9 5.8 54 4.4 SW 22 28 12 15 1015.9 1015.7 0.0
 
Date/Time
EST
Temp
°C
App
Temp
°C
Dew
Point
Rel
Hum
%
Delta-T
°C
Wind Press
QNH
hPa
Press
MSL
hPa
Rain
since 9 am
mm
Dir
 
Spd
km/h
Gust
km/h
Spd
kts
Gust
kts
31/11:30pm 15.2 9.7 6.0 54 4.4 SW 24 33 13 18 1015.9 1015.7 0.0
31/11:00pm 15.7 9.3 5.0 49 5.1 SW 28 39 15 21 1015.8 1015.6 0.0
31/10:30pm 15.8 10.4 6.5 54 4.6 WSW 24 35 13 19 1015.8 1015.6 0.0
31/10:00pm 16.6 12.7 9.3 62 3.8 W 20 28 11 15 1015.6 1015.4 0.0
31/09:30pm 17.3 13.6 10.2 63 3.8 W 20 26 11 14 1015.7 1015.5 0.0
31/09:00pm 17.3 14.1 11.3 68 3.3 WNW 19 22 10 12 1015.5 1015.3 0.0
31/08:30pm 17.4 14.4 10.5 64 3.7 NW 17 20 9 11 1015.3 1015.1 0.0
31/08:00pm 17.4 15.3 11.0 66 3.5 NW 13 17 7 9 1015.3 1015.1 0.0
31/07:30pm 17.4 15.3 11.2 67 3.4 NNW 13 15 7 8 1015.2 1015.0 0.0
31/07:00pm 17.7 15.9 10.8 64 3.7 NNW 11 15 6 8 1014.8 1014.6 0.0
31/06:30pm 17.8 16.2 11.4 66 3.5 NNE 11 13 6 7 1014.4 1014.2 0.0
31/06:00pm 17.2 15.3 11.7 70 3.0 ENE 13 17 7 9 1014.1 1013.9 0.0
31/05:30pm 17.2 15.1 11.2 68 3.3 ENE 13 17 7 9 1014.0 1013.8 0.0
31/05:00pm 17.6 14.9 11.6 68 3.3 E 17 20 9 11 1013.8 1013.6 0.0
31/04:30pm 17.9 15.1 11.5 66 3.5 E 17 20 9 11 1013.6 1013.4 0.0
31/04:00pm 17.9 15.2 11.7 67 3.4 E 17 20 9 11 1013.5 1013.3 0.0
31/03:30pm 18.3 15.6 11.8 66 3.6 E 17 20 9 11 1013.5 1013.3 0.0
31/03:00pm 18.5 15.8 11.8 65 3.7 ESE 17 19 9 10 1013.6 1013.4 0.0
31/02:30pm 18.6 15.9 11.7 64 3.8 ESE 17 19 9 10 1013.8 1013.6 0.0
31/02:00pm 18.9 16.3 11.9 64 3.9 ESE 17 20 9 11 1013.9 1013.7 0.0
31/01:30pm 19.0 16.0 11.8 63 4.0 SE 19 22 10 12 1014.2 1014.0 0.0
31/01:00pm 20.1 17.4 12.8 63 4.1 SE 19 22 10 12 1014.5 1014.3 0.0
31/12:30pm 19.3 16.2 12.1 63 4.0 SE 20 24 11 13 1014.6 1014.4 0.0
31/12:00pm 19.4 15.8 11.9 62 4.2 SE 22 26 12 14 1014.9 1014.7 0.0
31/11:30am 18.9 15.6 11.0 60 4.3 SE 19 26 10 14 1015.2 1015.0 0.0
31/11:00am 19.1 15.9 11.2 60 4.3 SE 19 24 10 13 1015.7 1015.5 0.0
31/10:30am 18.4 14.9 10.3 59 4.4 SSE 19 24 10 13 1016.0 1015.8 0.0
31/10:00am 19.0 16.8 10.8 59 4.5 SSE 13 20 7 11 1016.3 1016.1 0.0

Other Formats:

Comma delimited format used in spreadsheet applications
http://www.bom.gov.au/fwo/IDQ60801/IDQ60801.94594.axf

JavaScript Object Notation format (JSON) in row-major order
http://www.bom.gov.au/fwo/IDQ60801/IDQ60801.94594.json